Marion, OH (43301)

6:26 PM EDT on September 03, 2015 (GMT -0400)
Eagle Creek | | Change Station
CLOSE
Current Station
Personal Weather Station
Location: Marion, OH
Elevation: 942 ft
Nearby Weather Stations

Elev 942 ft 40.55 °N, 83.16 °W | Updated 7 minutes ago

Overcast
Overcast
88.5 °F
Feels Like 96 °F
N
2.2
Wind Variable Wind from WSW

Today
High -- | Low -- °F
--% Chance of Precip.
Yesterday
High -- | Low -- °F
Precip. -- in
7:01 AM 8:01 PM
Waning Gibbous, 66% visible
Pressure 29.93 in
Visibility 7.0 miles
Clouds Clear
Heat Index 96 °F
Dew Point 72 °F
Humidity 59%
Rainfall 0.00 in
Snow Depth Not available.
UV 2 out of 12
Pollen 10.20 out of 12
Air Quality Not available.
Flu Activity Not available.
METAR KMNN 032153Z AUTO 18005KT 7SM CLR 28/22 A2994 RMK AO2 SLP133 T02780222 TSNO
Pressure 29.93 in
Visibility 7.0 miles
Clouds Clear
Heat Index 96 °F
Dew Point 72 °F
Humidity 59%
Rainfall 0.00 in
Snow Depth Not available.
UV 2 out of 12
Pollen 10.20 out of 12
Air Quality Not available.
Flu Activity Not available.
METAR KMNN 032153Z AUTO 18005KT 7SM CLR 28/22 A2994 RMK AO2 SLP133 T02780222 TSNO

10-Day Weather Forecast

×

Almanac

Astronomy

Sep. 03, 2015 Rise Set
Actual Time
Civil Twilight
Nautical Twilight
Astronomical Twilight
Moon
Length of Visible Light
Length of Day
Tomorrow will be .
, % of the Moon is Illuminated

Today's Extremes

State Highs State Lows

Community

WunderPhotos

Upload Photos

1,852,048 photos uploaded!

WunderBlogs® & News

Nearby

Air Quality

  Air Quality AQ Index Pollutant
Not available.

Snow Depth

Station Depth Elevation

Earthquake Activity

City Distance Mag. Time & Date
Minimum magnitude displayed is 2.5.

Coastal Water Temperatures

Place Temperature

Stations

Nearby Weather Stations

Station Location Temp. Windchill Dew Point Humidity Wind Precip. Elev Updated Type